Time;durP1;ratioP1;P1;durP2;ratioP2;P2;SDS_P1;SDS_P2;PMS_P1;PMS_P2;Temp;Humidity;BMP_temperature;BMP_pressure;BME280_temperature;BME280_humidity;BME280_pressure;Samples;Min_cycle;Max_cycle;Signal;HPM_P1;HPM_P2
2022/11/25 00:01:13;;;;;;;11.83;9.73;;;5.00;1.00;;;;;;5071937;28;20400;-71
2022/11/25 00:03:40;;;;;;;12.13;9.37;;;5.00;1.00;;;;;;5072107;28;20435;-71
2022/11/25 00:06:13;;;;;;;21.13;9.70;;;4.90;1.00;;;;;;5074593;28;20438;-70
2022/11/25 00:08:40;;;;;;;13.80;9.73;;;4.90;1.00;;;;;;5076529;28;20448;-72
2022/11/25 00:11:06;;;;;;;13.57;10.33;;;4.90;1.00;;;;;;5076663;28;20395;-70
2022/11/25 00:13:33;;;;;;;18.80;10.67;;;4.90;1.00;;;;;;5074949;28;20404;-70
2022/11/25 00:16:03;;;;;;;16.77;9.00;;;4.90;1.00;;;;;;5075475;28;20415;-71
2022/11/25 00:18:29;;;;;;;14.87;9.43;;;4.90;1.00;;;;;;5074760;28;20915;-71
2022/11/25 00:20:55;;;;;;;15.67;9.87;;;4.90;1.00;;;;;;5076391;28;20459;-70
2022/11/25 00:23:21;;;;;;;24.13;12.63;;;4.90;1.00;;;;;;5076121;28;20410;-72
2022/11/25 00:25:47;;;;;;;17.17;10.57;;;4.90;1.00;;;;;;5074549;28;20923;-71
2022/11/25 00:28:12;;;;;;;27.47;11.30;;;5.00;1.00;;;;;;5076048;28;20197;-71
2022/11/25 00:30:38;;;;;;;25.83;11.03;;;5.00;1.00;;;;;;5076421;28;20192;-71
2022/11/25 00:33:04;;;;;;;33.00;10.70;;;5.00;1.00;;;;;;5074743;28;20173;-70
2022/11/25 00:35:29;;;;;;;26.53;12.50;;;4.90;1.00;;;;;;5074916;28;20211;-71
2022/11/25 00:37:55;;;;;;;20.57;11.73;;;5.00;1.00;;;;;;5075889;28;20164;-70
2022/11/25 00:40:21;;;;;;;27.03;10.80;;;5.00;1.00;;;;;;5075987;28;20174;-70
2022/11/25 00:45:31;;;;;;;22.97;11.53;;;5.00;1.00;;;;;;5075483;28;20210;-70
2022/11/25 00:47:57;;;;;;;15.00;10.03;;;5.00;1.00;;;;;;5075696;28;20447;-72
2022/11/25 00:50:22;;;;;;;22.50;11.43;;;5.00;1.00;;;;;;5074702;28;20622;-71
2022/11/25 00:52:48;;;;;;;18.93;11.10;;;5.00;1.00;;;;;;5076046;28;20163;-72
2022/11/25 00:55:14;;;;;;;33.27;11.57;;;5.00;1.00;;;;;;5074546;28;20369;-70
2022/11/25 00:57:39;;;;;;;29.70;13.07;;;5.10;1.00;;;;;;5075643;28;20190;-70
2022/11/25 01:00:06;;;;;;;17.97;10.83;;;5.10;1.00;;;;;;5075731;28;20182;-71
2022/11/25 01:02:32;;;;;;;16.83;12.60;;;5.00;1.00;;;;;;5074375;28;20535;-70
2022/11/25 01:04:57;;;;;;;35.40;13.33;;;5.10;1.00;;;;;;5074753;28;20404;-70
2022/11/25 01:07:23;;;;;;;23.10;10.87;;;5.00;9.30;;;;;;5075381;28;20202;-70
2022/11/25 01:09:49;;;;;;;19.97;10.93;;;5.00;25.90;;;;;;5075476;28;20177;-71
2022/11/25 01:12:15;;;;;;;22.90;11.07;;;5.00;28.60;;;;;;5074615;28;20527;-71
2022/11/25 01:14:41;;;;;;;20.80;11.67;;;5.00;38.20;;;;;;5074347;28;20419;-70
2022/11/25 01:17:07;;;;;;;25.27;11.77;;;5.00;60.70;;;;;;5074807;28;20447;-70
2022/11/25 01:19:33;;;;;;;21.13;9.97;;;5.00;71.00;;;;;;5075297;28;20230;-70
2022/11/25 01:21:59;;;;;;;14.50;10.40;;;5.00;77.60;;;;;;5073952;28;20409;-71
2022/11/25 01:24:25;;;;;;;16.80;10.30;;;5.00;99.90;;;;;;5074473;28;20407;-71
2022/11/25 01:26:53;;;;;;;19.13;11.33;;;5.00;95.90;;;;;;5074946;28;20200;-71
2022/11/25 01:29:19;;;;;;;18.93;10.10;;;5.00;99.90;;;;;;5073447;28;20172;-71
2022/11/25 01:31:47;;;;;;;27.90;9.23;;;5.00;99.90;;;;;;5074547;28;20399;-70
2022/11/25 01:34:17;;;;;;;11.03;9.00;;;5.00;99.90;;;;;;5074240;28;20246;-71
2022/11/25 01:36:43;;;;;;;15.10;9.60;;;5.00;99.90;;;;;;5074738;28;20513;-70
2022/11/25 01:39:17;;;;;;;17.03;10.03;;;5.00;99.90;;;;;;5073782;28;20418;-71
2022/11/25 01:41:43;;;;;;;25.50;10.27;;;5.00;99.90;;;;;;5074871;28;20761;-71
2022/11/25 01:44:20;;;;;;;19.00;11.13;;;5.10;99.90;;;;;;5072621;28;20411;-71
2022/11/25 01:47:11;;;;;;;14.73;10.07;;;5.10;99.90;;;;;;5073613;28;20451;-71
2022/11/25 01:50:00;;;;;;;15.17;9.60;;;5.10;99.90;;;;;;5074208;28;20425;-70
2022/11/25 01:52:38;;;;;;;13.60;9.37;;;5.10;99.90;;;;;;5073724;28;20757;-71
2022/11/25 01:55:14;;;;;;;14.23;9.47;;;5.10;99.90;;;;;;5073813;28;20418;-71
2022/11/25 01:57:46;;;;;;;15.90;9.73;;;5.10;99.90;;;;;;5074186;28;20439;-72
2022/11/25 02:00:12;;;;;;;16.57;10.23;;;5.10;99.90;;;;;;5074613;28;20739;-70
2022/11/25 02:02:39;;;;;;;13.73;10.37;;;5.10;99.90;;;;;;5074194;28;20739;-71
2022/11/25 02:05:09;;;;;;;14.40;9.23;;;5.10;99.90;;;;;;5073099;28;20415;-70
2022/11/25 02:07:39;;;;;;;13.70;8.80;;;5.10;99.90;;;;;;5074175;28;20454;-70
2022/11/25 02:10:13;;;;;;;15.07;9.60;;;5.00;99.90;;;;;;5074448;28;20412;-71
2022/11/25 02:12:42;;;;;;;14.50;9.10;;;5.00;99.90;;;;;;5072959;28;20405;-71
2022/11/25 02:15:08;;;;;;;15.50;9.33;;;5.00;99.90;;;;;;5073525;28;20410;-70
2022/11/25 02:17:34;;;;;;;15.57;8.93;;;5.00;99.90;;;;;;5072703;28;20424;-71
2022/11/25 02:20:09;;;;;;;14.00;9.47;;;4.90;99.90;;;;;;5074107;28;20418;-70
2022/11/25 02:22:49;;;;;;;13.07;8.93;;;4.90;99.90;;;;;;5073603;28;20172;-71
2022/11/25 02:25:22;;;;;;;11.17;8.43;;;4.80;99.90;;;;;;5073154;28;20438;-71
2022/11/25 02:27:53;;;;;;;11.00;8.07;;;4.80;99.90;;;;;;5073097;28;20956;-71
2022/11/25 02:30:19;;;;;;;16.30;8.23;;;4.80;99.90;;;;;;5073894;28;20393;-72
2022/11/25 02:32:46;;;;;;;10.60;8.53;;;4.80;99.90;;;;;;5073863;28;20418;-71
2022/11/25 02:35:31;;;;;;;13.43;9.20;;;4.80;99.90;;;;;;5073086;28;20165;-71
2022/11/25 02:38:03;;;;;;;16.47;9.60;;;4.80;99.90;;;;;;5073762;28;21011;-70
2022/11/25 02:40:30;;;;;;;10.30;8.70;;;4.90;99.90;;;;;;5073149;28;20414;-70
2022/11/25 02:42:58;;;;;;;9.77;8.07;;;4.80;99.90;;;;;;5073617;28;20408;-71
2022/11/25 02:45:34;;;;;;;14.77;8.60;;;4.90;99.90;;;;;;5071718;28;20940;-71
2022/11/25 02:48:00;;;;;;;10.77;7.90;;;4.90;99.90;;;;;;5073722;28;20801;-70
2022/11/25 02:50:25;;;;;;;11.47;8.97;;;4.90;99.90;;;;;;5073798;28;20400;-71
2022/11/25 02:52:51;;;;;;;12.40;9.20;;;4.80;99.90;;;;;;5073600;28;20260;-71
2022/11/25 02:55:17;;;;;;;14.07;8.27;;;4.90;99.90;;;;;;5072780;28;20173;-72
2022/11/25 02:57:42;;;;;;;12.77;9.10;;;4.90;99.90;;;;;;5073461;28;20520;-71
2022/11/25 03:00:09;;;;;;;12.70;8.93;;;4.90;99.90;;;;;;5072836;28;20218;-70
2022/11/25 03:02:34;;;;;;;15.57;9.60;;;4.90;99.90;;;;;;5072258;28;20640;-70
2022/11/25 03:05:00;;;;;;;15.23;9.30;;;4.90;99.90;;;;;;5072739;28;20410;-72
2022/11/25 03:07:26;;;;;;;14.10;8.93;;;4.90;99.90;;;;;;5073182;28;20206;-71
2022/11/25 03:09:51;;;;;;;18.23;9.60;;;4.90;99.90;;;;;;5072216;28;20553;-71
2022/11/25 03:12:20;;;;;;;13.37;8.50;;;4.90;99.90;;;;;;5073618;28;20168;-70
2022/11/25 03:14:46;;;;;;;15.77;8.97;;;4.90;99.90;;;;;;5072826;28;20561;-71
2022/11/25 03:17:12;;;;;;;15.00;9.27;;;4.90;99.90;;;;;;5072459;28;20437;-72
2022/11/25 03:19:38;;;;;;;12.53;8.57;;;4.90;99.90;;;;;;5073272;28;20436;-70
2022/11/25 03:22:05;;;;;;;12.00;8.47;;;4.90;99.90;;;;;;5072267;28;20446;-70
2022/11/25 03:24:32;;;;;;;12.57;9.60;;;4.90;99.90;;;;;;5071493;28;20409;-71
2022/11/25 03:26:57;;;;;;;15.07;8.90;;;4.90;99.90;;;;;;5073082;28;20786;-70
2022/11/25 03:29:23;;;;;;;11.20;8.23;;;4.90;99.90;;;;;;5073134;28;20501;-71
2022/11/25 03:31:49;;;;;;;11.30;8.57;;;4.90;99.90;;;;;;5073045;28;20643;-71
2022/11/25 03:34:14;;;;;;;12.53;8.63;;;4.90;99.90;;;;;;5071671;28;20162;-70
2022/11/25 03:36:40;;;;;;;12.50;9.30;;;4.90;99.90;;;;;;5073057;28;20535;-71
2022/11/25 03:39:06;;;;;;;15.13;9.23;;;4.80;99.90;;;;;;5072229;28;20282;-71
2022/11/25 03:41:32;;;;;;;15.37;10.17;;;4.80;99.90;;;;;;5077046;28;20660;-72
2022/11/25 03:43:57;;;;;;;13.37;9.70;;;4.80;99.90;;;;;;5076347;28;20477;-70
2022/11/25 03:46:23;;;;;;;19.93;10.27;;;4.80;99.90;;;;;;5077134;28;20201;-70
2022/11/25 03:48:49;;;;;;;15.17;11.10;;;4.80;99.90;;;;;;5075601;28;20655;-71
2022/11/25 03:51:15;;;;;;;12.90;9.30;;;4.80;99.90;;;;;;5076376;28;20903;-71
2022/11/25 03:53:40;;;;;;;17.33;10.10;;;4.80;99.90;;;;;;5076024;28;20657;-71
2022/11/25 03:56:07;;;;;;;15.80;9.50;;;4.80;99.90;;;;;;5076694;28;20251;-73
2022/11/25 03:58:32;;;;;;;11.30;9.03;;;4.80;99.90;;;;;;5076911;28;20166;-70
2022/11/25 04:01:02;;;;;;;15.83;9.60;;;4.80;99.90;;;;;;5076968;28;20753;-69
2022/11/25 04:03:29;;;;;;;17.30;10.20;;;4.80;99.90;;;;;;5076675;28;20292;-71
2022/11/25 04:05:55;;;;;;;16.57;9.70;;;4.80;99.90;;;;;;5075940;28;20454;-70
2022/11/25 04:08:21;;;;;;;13.63;9.70;;;4.80;99.90;;;;;;5076036;28;20447;-71
2022/11/25 04:10:49;;;;;;;16.10;9.10;;;4.80;99.90;;;;;;5076396;28;20391;-71
2022/11/25 04:13:15;;;;;;;14.50;9.37;;;4.80;99.90;;;;;;5075351;28;20409;-71
2022/11/25 04:15:48;;;;;;;16.70;10.43;;;4.80;99.90;;;;;;5075779;28;20448;-72
2022/11/25 04:18:15;;;;;;;22.73;11.20;;;4.90;99.90;;;;;;5076468;28;20486;-71
2022/11/25 04:20:41;;;;;;;13.10;9.60;;;4.90;99.90;;;;;;5076483;28;20434;-71
2022/11/25 04:23:08;;;;;;;13.13;9.80;;;4.80;99.90;;;;;;5076593;28;20882;-71
2022/11/25 04:25:35;;;;;;;17.97;11.40;;;4.90;99.90;;;;;;5074516;28;20178;-70
2022/11/25 04:28:01;;;;;;;25.63;11.10;;;4.80;99.90;;;;;;5075441;28;20459;-72
2022/11/25 04:30:27;;;;;;;17.43;11.60;;;4.80;99.90;;;;;;5076032;28;20427;-70
2022/11/25 04:32:52;;;;;;;13.70;10.23;;;4.80;99.90;;;;;;5076324;28;20430;-71
2022/11/25 04:35:18;;;;;;;13.63;9.93;;;4.80;99.90;;;;;;5075529;28;20609;-71
2022/11/25 04:37:44;;;;;;;16.73;11.13;;;4.80;99.90;;;;;;5076055;28;20186;-71
2022/11/25 04:40:10;;;;;;;30.63;12.13;;;4.80;99.90;;;;;;5075987;28;20178;-72
2022/11/25 04:42:38;;;;;;;18.80;10.97;;;4.80;99.90;;;;;;5076300;28;20570;-70
2022/11/25 04:45:10;;;;;;;18.50;10.90;;;4.80;99.90;;;;;;5075129;28;20761;-72
2022/11/25 04:47:36;;;;;;;15.83;10.97;;;4.80;99.90;;;;;;5075368;28;21006;-71
2022/11/25 04:50:03;;;;;;;15.27;10.93;;;4.90;99.90;;;;;;5075738;28;20880;-70
2022/11/25 04:52:29;;;;;;;18.00;11.40;;;4.90;99.90;;;;;;5074992;28;20396;-69
2022/11/25 04:54:55;;;;;;;13.97;10.27;;;4.90;99.90;;;;;;5075418;28;20469;-71
2022/11/25 04:57:20;;;;;;;14.77;10.60;;;4.90;99.90;;;;;;5075802;28;20197;-71
2022/11/25 04:59:46;;;;;;;15.07;10.83;;;4.80;99.90;;;;;;5074610;28;20264;-70
2022/11/25 05:02:16;;;;;;;18.37;11.27;;;4.80;99.90;;;;;;5075634;28;20181;-71
2022/11/25 05:04:44;;;;;;;15.60;10.90;;;4.80;99.90;;;;;;5074392;28;20460;-70
2022/11/25 05:07:10;;;;;;;16.80;9.13;;;4.80;99.90;;;;;;5075375;28;20471;-70
2022/11/25 05:09:36;;;;;;;16.60;9.07;;;4.80;99.90;;;;;;5075578;28;20392;-70
2022/11/25 05:12:03;;;;;;;23.37;10.70;;;4.90;99.90;;;;;;5074290;28;20915;-71
2022/11/25 05:14:28;;;;;;;14.23;9.97;;;4.80;99.90;;;;;;5074722;28;20398;-71
2022/11/25 05:16:54;;;;;;;18.50;10.03;;;4.80;99.90;;;;;;5075530;28;20431;-70
2022/11/25 05:19:20;;;;;;;15.33;9.73;;;4.80;99.90;;;;;;5075414;28;20666;-71
2022/11/25 05:21:46;;;;;;;19.30;10.53;;;4.80;99.90;;;;;;5074864;28;20170;-72
2022/11/25 05:24:11;;;;;;;24.30;11.87;;;4.80;99.90;;;;;;5074235;28;20222;-71
2022/11/25 05:26:37;;;;;;;14.63;9.53;;;4.80;99.90;;;;;;5075003;28;20277;-71
2022/11/25 05:29:03;;;;;;;17.27;10.00;;;4.80;99.90;;;;;;5075215;28;20561;-70
2022/11/25 05:31:29;;;;;;;17.03;9.90;;;4.80;99.90;;;;;;5075233;28;20622;-70
2022/11/25 05:33:54;;;;;;;21.73;13.00;;;4.80;99.90;;;;;;5074413;28;20985;-70
2022/11/25 05:36:20;;;;;;;18.53;10.60;;;4.90;99.90;;;;;;5074901;28;20186;-70
2022/11/25 05:38:47;;;;;;;18.57;11.80;;;4.80;99.90;;;;;;5074924;28;20170;-70
2022/11/25 05:41:12;;;;;;;22.80;12.40;;;4.80;99.90;;;;;;5074265;28;20193;-71
2022/11/25 05:43:38;;;;;;;19.90;11.43;;;4.80;99.90;;;;;;5074251;28;20418;-71
2022/11/25 05:46:05;;;;;;;16.73;10.43;;;4.80;99.90;;;;;;5074818;28;20246;-71
2022/11/25 05:48:31;;;;;;;18.00;12.17;;;4.80;99.90;;;;;;5074575;28;20221;-70
2022/11/25 05:50:59;;;;;;;17.53;11.70;;;4.80;99.90;;;;;;5074628;28;20402;-70
2022/11/25 05:53:25;;;;;;;18.70;10.87;;;4.80;99.90;;;;;;5074777;28;20245;-74
2022/11/25 05:55:59;;;;;;;16.17;11.00;;;4.80;99.90;;;;;;5073971;28;20969;-71
2022/11/25 05:58:25;;;;;;;18.83;11.47;;;4.70;99.90;;;;;;5074080;28;20414;-71
2022/11/25 06:00:51;;;;;;;19.97;12.63;;;4.80;99.90;;;;;;5074110;28;20930;-69
2022/11/25 06:03:17;;;;;;;16.80;11.17;;;4.80;99.90;;;;;;5074649;28;20402;-70
2022/11/25 06:05:43;;;;;;;22.10;11.53;;;4.80;99.90;;;;;;5073671;28;20424;-69
2022/11/25 06:08:09;;;;;;;15.43;10.40;;;4.80;99.90;;;;;;5074313;28;20199;-70
2022/11/25 06:10:39;;;;;;;18.40;11.13;;;4.80;99.90;;;;;;5074518;28;20738;-70
2022/11/25 06:13:06;;;;;;;18.50;12.40;;;4.80;99.90;;;;;;5073022;28;20413;-69
2022/11/25 06:15:32;;;;;;;18.47;10.70;;;4.70;99.90;;;;;;5072685;28;20402;-70
2022/11/25 06:17:58;;;;;;;21.33;10.73;;;4.80;99.90;;;;;;5074131;28;20455;-70
2022/11/25 06:20:23;;;;;;;14.20;9.37;;;4.70;99.90;;;;;;5074319;28;20405;-71
2022/11/25 06:22:49;;;;;;;11.87;10.00;;;4.70;99.90;;;;;;5073983;28;20178;-70
2022/11/25 06:25:15;;;;;;;18.03;10.63;;;4.70;99.90;;;;;;5073383;28;20184;-70
2022/11/25 06:27:41;;;;;;;11.80;8.97;;;4.70;99.90;;;;;;5073889;28;20232;-71
2022/11/25 06:30:07;;;;;;;15.67;10.33;;;4.70;99.90;;;;;;5073978;28;20171;-70
2022/11/25 06:32:33;;;;;;;17.10;9.00;;;4.70;99.90;;;;;;5073954;28;20532;-72
2022/11/25 06:34:58;;;;;;;14.30;10.10;;;4.60;99.90;;;;;;5072529;28;20397;-70
2022/11/25 06:37:24;;;;;;;20.63;11.50;;;4.60;99.90;;;;;;5073791;28;20279;-70
2022/11/25 06:39:50;;;;;;;14.50;9.33;;;4.60;99.90;;;;;;5073985;28;20180;-70
2022/11/25 06:42:15;;;;;;;15.03;9.47;;;4.60;99.90;;;;;;5073776;28;20539;-72
2022/11/25 06:44:41;;;;;;;15.30;10.97;;;4.60;99.90;;;;;;5073038;28;20183;-74
2022/11/25 06:47:07;;;;;;;18.47;11.00;;;4.70;99.90;;;;;;5073398;28;20206;-74
2022/11/25 06:49:32;;;;;;;15.93;8.87;;;4.80;99.90;;;;;;5073653;28;20172;-72
2022/11/25 06:51:58;;;;;;;14.30;9.47;;;4.80;99.90;;;;;;5072889;28;20167;-72
2022/11/25 06:54:24;;;;;;;17.40;9.87;;;4.80;99.90;;;;;;5072835;28;20168;-70
2022/11/25 06:56:50;;;;;;;15.63;9.43;;;4.80;99.90;;;;;;5073486;28;20186;-70
2022/11/25 06:59:17;;;;;;;16.20;9.77;;;4.80;99.90;;;;;;5073289;28;20212;-69
2022/11/25 07:01:43;;;;;;;15.83;9.27;;;4.80;99.90;;;;;;5073382;28;20407;-70
2022/11/25 07:04:08;;;;;;;12.37;9.63;;;4.90;99.90;;;;;;5072797;28;20747;-70
2022/11/25 07:06:34;;;;;;;13.77;9.80;;;4.90;99.90;;;;;;5073384;28;20442;-70
2022/11/25 07:09:00;;;;;;;18.00;9.63;;;4.90;99.90;;;;;;5072741;28;20629;-70
2022/11/25 07:11:35;;;;;;;19.73;9.60;;;4.90;99.90;;;;;;5072180;28;20432;-70
2022/11/25 07:14:13;;;;;;;13.30;9.60;;;4.90;99.90;;;;;;5071079;28;20477;-70
2022/11/25 07:16:41;;;;;;;9.63;7.90;;;4.80;99.90;;;;;;5072105;28;20419;-70
2022/11/25 07:19:07;;;;;;;15.10;10.67;;;4.80;99.90;;;;;;5073475;28;20493;-71
2022/11/25 07:21:33;;;;;;;14.87;9.70;;;4.80;99.90;;;;;;5072061;28;20487;-71
2022/11/25 07:24:01;;;;;;;15.87;10.23;;;4.90;99.90;;;;;;5072702;28;20647;-70
2022/11/25 07:26:30;;;;;;;20.43;10.90;;;4.80;99.90;;;;;;5072216;28;20431;-70
2022/11/25 07:28:59;;;;;;;16.87;9.73;;;4.80;99.90;;;;;;5071246;28;20462;-70
2022/11/25 07:31:34;;;;;;;17.27;10.50;;;4.80;99.90;;;;;;5073201;28;20419;-71
2022/11/25 07:34:16;;;;;;;16.30;10.77;;;4.80;99.90;;;;;;5072652;28;20434;-71
2022/11/25 07:36:42;;;;;;;10.07;8.63;;;4.80;99.90;;;;;;5072981;28;20428;-71
2022/11/25 07:39:13;;;;;;;13.73;9.40;;;4.80;99.90;;;;;;5073240;28;20393;-71
2022/11/25 07:41:40;;;;;;;8.40;7.33;;;4.80;99.90;;;;;;5073023;28;20425;-71
2022/11/25 07:44:07;;;;;;;11.07;7.90;;;4.80;99.90;;;;;;5072065;28;20400;-71
2022/11/25 07:46:36;;;;;;;17.33;9.30;;;4.80;99.90;;;;;;5072763;28;20961;-70
2022/11/25 07:49:07;;;;;;;25.37;10.00;;;4.70;99.90;;;;;;5071868;28;20435;-70
2022/11/25 07:51:39;;;;;;;17.40;9.87;;;4.80;99.90;;;;;;5071929;28;20414;-72
2022/11/25 07:54:07;;;;;;;14.07;10.33;;;4.80;99.90;;;;;;5072352;28;20403;-70
2022/11/25 07:56:34;;;;;;;15.33;8.50;;;4.80;99.90;;;;;;5071867;28;20487;-71
2022/11/25 07:59:00;;;;;;;9.73;7.10;;;4.80;99.90;;;;;;5072985;28;20602;-71
2022/11/25 08:01:26;;;;;;;13.20;6.83;;;4.80;99.90;;;;;;5072922;28;20504;-71
2022/11/25 08:03:52;;;;;;;19.13;8.43;;;4.80;99.90;;;;;;5071427;28;20403;-71
2022/11/25 08:06:21;;;;;;;13.30;8.27;;;4.90;99.90;;;;;;5072881;28;20202;-70
2022/11/25 08:08:46;;;;;;;9.97;7.80;;;4.90;99.90;;;;;;5072855;28;21098;-70
2022/11/25 08:11:15;;;;;;;11.10;7.10;;;5.00;99.90;;;;;;5072967;28;20475;-71
2022/11/25 08:13:41;;;;;;;13.17;7.07;;;5.10;99.90;;;;;;5072237;28;20166;-71
2022/11/25 08:16:10;;;;;;;10.80;7.60;;;5.00;99.90;;;;;;5072659;28;20412;-71
2022/11/25 08:18:36;;;;;;;12.70;7.80;;;5.10;99.90;;;;;;5071736;28;20412;-72
2022/11/25 08:21:10;;;;;;;12.80;7.57;;;5.10;99.90;;;;;;5072822;28;20502;-71
2022/11/25 08:23:38;;;;;;;9.63;7.43;;;5.10;99.90;;;;;;5071942;28;20179;-72
2022/11/25 08:26:09;;;;;;;11.30;6.87;;;5.10;99.90;;;;;;5073010;28;20432;-70
2022/11/25 08:28:36;;;;;;;12.03;7.77;;;5.20;99.90;;;;;;5075087;28;20451;-70
2022/11/25 08:31:07;;;;;;;9.97;7.80;;;5.20;97.00;;;;;;5076424;28;20410;-70
2022/11/25 08:33:33;;;;;;;14.53;8.33;;;5.20;97.20;;;;;;5076074;28;20402;-70
2022/11/25 08:35:59;;;;;;;11.10;8.20;;;5.20;99.90;;;;;;5074621;28;20430;-71
2022/11/25 08:38:26;;;;;;;10.20;7.30;;;5.20;95.70;;;;;;5074888;28;20792;-71
2022/11/25 08:40:52;;;;;;;13.03;8.27;;;5.10;95.70;;;;;;5075112;28;20180;-71
2022/11/25 08:43:20;;;;;;;11.67;8.13;;;5.20;91.80;;;;;;5075263;28;20404;-71
2022/11/25 08:45:47;;;;;;;11.00;7.73;;;5.20;90.30;;;;;;5075383;28;22107;-71
2022/11/25 08:48:13;;;;;;;10.80;7.50;;;5.20;97.30;;;;;;5075815;28;20462;-71
2022/11/25 08:50:48;;;;;;;10.50;7.07;;;5.20;94.00;;;;;;5075911;28;20402;-70
2022/11/25 08:53:14;;;;;;;7.77;6.53;;;5.20;81.60;;;;;;5075848;28;20397;-71
2022/11/25 08:55:40;;;;;;;13.20;8.27;;;5.20;84.20;;;;;;5073764;28;20415;-71
2022/11/25 08:58:09;;;;;;;12.37;7.43;;;5.20;84.30;;;;;;5075616;28;20401;-71
2022/11/25 09:00:37;;;;;;;15.27;8.17;;;5.20;77.60;;;;;;5075910;28;20173;-71
2022/11/25 09:03:03;;;;;;;9.73;7.70;;;5.30;90.50;;;;;;5074894;28;20490;-71
2022/11/25 09:05:34;;;;;;;14.53;8.93;;;5.30;90.60;;;;;;5074927;28;20427;-71
2022/11/25 09:08:01;;;;;;;9.30;8.27;;;5.30;87.50;;;;;;5075145;28;20453;-72
2022/11/25 09:10:26;;;;;;;13.93;9.00;;;5.40;91.40;;;;;;5074603;28;20403;-71
2022/11/25 09:12:52;;;;;;;11.93;7.97;;;5.60;94.60;;;;;;5075467;28;20402;-71
2022/11/25 09:15:18;;;;;;;15.63;9.90;;;5.50;89.20;;;;;;5074875;28;20170;-70
2022/11/25 09:17:44;;;;;;;12.30;8.43;;;5.60;81.00;;;;;;5075449;28;20197;-70
2022/11/25 09:20:10;;;;;;;13.63;9.20;;;5.60;79.40;;;;;;5075452;28;20179;-71
2022/11/25 09:22:35;;;;;;;16.20;9.07;;;5.60;77.80;;;;;;5074837;28;20585;-70
2022/11/25 09:25:01;;;;;;;14.50;8.00;;;5.60;78.10;;;;;;5074649;28;20410;-70
2022/11/25 09:27:27;;;;;;;13.67;9.83;;;5.60;72.90;;;;;;5075114;28;20584;-70
2022/11/25 09:29:53;;;;;;;16.00;9.00;;;5.60;78.30;;;;;;5075241;28;20162;-71
2022/11/25 09:32:18;;;;;;;15.13;10.17;;;5.70;77.00;;;;;;5075018;28;20158;-71
2022/11/25 09:34:44;;;;;;;14.37;9.17;;;5.70;59.90;;;;;;5074412;28;20173;-70
2022/11/25 09:37:11;;;;;;;13.30;8.70;;;5.70;70.90;;;;;;5073644;28;20205;-70
2022/11/25 09:39:36;;;;;;;14.80;8.60;;;5.80;76.50;;;;;;5074928;28;20223;-72
2022/11/25 09:48:29;;;;;;;10.73;8.40;;;5.90;66.70;;;;;;5074776;28;20531;-70
2022/11/25 09:50:58;;;;;;;12.83;8.37;;;6.00;47.80;;;;;;5074742;28;20483;-70
2022/11/25 09:53:47;;;;;;;17.83;9.23;;;6.00;43.50;;;;;;5073444;28;20409;-72
2022/11/25 09:56:29;;;;;;;11.90;7.90;;;6.00;67.80;;;;;;5074503;28;20511;-71
2022/11/25 09:59:10;;;;;;;18.30;9.00;;;6.00;59.70;;;;;;5074500;28;20396;-71
2022/11/25 10:02:02;;;;;;;15.10;8.10;;;6.10;56.60;;;;;;5074194;28;20753;-70
2022/11/25 10:04:42;;;;;;;15.70;7.63;;;6.10;33.50;;;;;;5073782;28;20554;-71
2022/11/25 10:07:35;;;;;;;16.00;7.60;;;6.10;51.50;;;;;;5073130;28;20468;-71
2022/11/25 10:10:06;;;;;;;13.17;8.00;;;6.10;39.70;;;;;;5062692;28;20426;-72
2022/11/25 10:12:37;;;;;;;11.53;8.00;;;6.20;29.60;;;;;;5074473;28;20424;-72
2022/11/25 10:15:17;;;;;;;13.60;7.07;;;6.10;30.90;;;;;;5073577;28;20393;-71
2022/11/25 10:17:49;;;;;;;17.90;8.23;;;6.10;22.70;;;;;;5072539;28;20432;-72
2022/11/25 10:20:29;;;;;;;10.83;8.07;;;6.10;13.60;;;;;;5072933;28;20418;-71
2022/11/25 10:23:03;;;;;;;13.37;8.60;;;6.20;12.70;;;;;;5074181;28;20753;-72
2022/11/25 10:25:44;;;;;;;15.87;9.67;;;6.20;21.90;;;;;;5073288;28;20504;-71
2022/11/25 10:28:19;;;;;;;12.27;6.80;;;6.20;29.80;;;;;;5073904;28;20797;-71
2022/11/25 10:31:14;;;;;;;9.07;7.40;;;6.20;21.60;;;;;;5074003;28;20929;-71
2022/11/25 10:33:46;;;;;;;14.53;9.10;;;6.30;21.90;;;;;;5072615;28;20431;-71
2022/11/25 10:36:20;;;;;;;13.37;9.13;;;6.30;13.70;;;;;;5073749;28;20412;-71
2022/11/25 10:38:55;;;;;;;11.73;7.20;;;6.30;15.70;;;;;;5072657;28;20414;-72
2022/11/25 10:41:25;;;;;;;16.20;13.10;;;6.30;19.50;;;;;;5073857;28;20410;-73
2022/11/25 10:43:50;;;;;;;20.40;13.90;;;6.40;25.00;;;;;;5072956;28;20450;-71
2022/11/25 10:46:31;;;;;;;14.77;11.20;;;6.30;14.00;;;;;;5073598;28;20429;-72
2022/11/25 10:49:21;;;;;;;12.13;8.97;;;6.30;13.00;;;;;;5072652;28;20201;-73
2022/11/25 10:51:48;;;;;;;14.77;10.87;;;6.30;27.90;;;;;;5073504;28;20978;-71
2022/11/25 10:54:21;;;;;;;16.70;10.10;;;6.30;21.30;;;;;;5071753;28;20408;-71
2022/11/25 10:56:52;;;;;;;16.83;11.57;;;6.30;22.40;;;;;;5073368;28;20420;-72
2022/11/25 10:59:34;;;;;;;11.47;9.97;;;6.40;20.60;;;;;;5072208;28;20969;-71
2022/11/25 11:02:18;;;;;;;16.40;9.20;;;6.40;26.90;;;;;;5073518;28;20735;-71
2022/11/25 11:05:07;;;;;;;8.83;6.57;;;6.50;12.00;;;;;;5071305;28;20925;-71
2022/11/25 11:07:36;;;;;;;15.93;7.90;;;6.50;15.90;;;;;;5073206;28;20489;-72
2022/11/25 11:10:23;;;;;;;18.90;9.73;;;6.50;29.70;;;;;;5073308;28;20456;-71
2022/11/25 11:13:23;;;;;;;8.17;7.37;;;6.60;30.00;;;;;;5073562;28;20400;-72
2022/11/25 11:15:50;;;;;;;12.60;8.47;;;6.60;44.20;;;;;;5069265;28;20571;-71
2022/11/25 11:18:24;;;;;;;12.87;8.03;;;6.60;33.20;;;;;;5073431;28;20408;-75
2022/11/25 11:20:52;;;;;;;12.17;7.30;;;6.60;37.90;;;;;;5073319;28;20400;-76
2022/11/25 11:23:18;;;;;;;14.13;7.20;;;6.60;42.30;;;;;;5073279;28;21002;-76
2022/11/25 11:26:02;;;;;;;9.37;6.13;;;6.50;38.30;;;;;;5072564;28;20424;-73
2022/11/25 11:28:32;;;;;;;11.70;7.80;;;6.60;35.90;;;;;;5072949;28;20447;-75
2022/11/25 11:31:02;;;;;;;12.73;8.70;;;6.60;39.50;;;;;;5073364;28;20401;-72
2022/11/25 11:33:54;;;;;;;13.87;7.60;;;6.60;50.00;;;;;;5071497;28;20424;-76
2022/11/25 11:36:47;;;;;;;12.07;7.00;;;6.70;43.10;;;;;;5073050;28;20539;-75
2022/11/25 11:39:40;;;;;;;13.43;8.50;;;6.70;62.90;;;;;;5072145;28;20413;-76
2022/11/25 11:42:08;;;;;;;7.33;6.00;;;6.70;70.40;;;;;;5072001;28;20524;-73
2022/11/25 11:44:55;;;;;;;8.47;6.77;;;6.70;71.90;;;;;;5071259;28;20466;-76
2022/11/25 11:47:27;;;;;;;9.73;7.60;;;6.70;75.30;;;;;;5071278;28;20809;-73
2022/11/25 11:50:03;;;;;;;13.23;7.27;;;6.70;65.20;;;;;;5073001;28;20392;-71
2022/11/25 11:52:35;;;;;;;16.10;9.47;;;6.70;65.70;;;;;;5073006;28;20435;-76
2022/11/25 11:55:24;;;;;;;15.50;9.07;;;6.70;65.90;;;;;;5071985;28;20403;-75
2022/11/25 11:57:55;;;;;;;11.13;8.17;;;6.70;69.30;;;;;;5063735;28;20439;-71
2022/11/25 12:00:21;;;;;;;13.00;8.83;;;6.70;76.30;;;;;;5073827;28;20746;-71
2022/11/25 12:02:59;;;;;;;9.33;8.13;;;6.80;76.60;;;;;;5075833;28;20412;-78
2022/11/25 12:05:32;;;;;;;11.00;6.60;;;6.80;75.40;;;;;;5075302;28;20424;-78
2022/11/25 12:08:19;;;;;;;13.30;7.50;;;6.80;76.20;;;;;;5076581;28;20455;-72
2022/11/25 12:10:52;;;;;;;7.37;6.43;;;6.80;78.60;;;;;;5075680;28;20424;-72
2022/11/25 12:13:24;;;;;;;6.97;6.27;;;6.90;78.90;;;;;;5075577;28;20451;-77
2022/11/25 12:16:07;;;;;;;19.50;7.70;;;6.90;78.90;;;;;;5075577;28;20431;-75
2022/11/25 12:18:55;;;;;;;13.23;7.90;;;7.00;93.50;;;;;;5076592;28;20520;-77
2022/11/25 12:21:51;;;;;;;8.20;5.70;;;7.10;94.10;;;;;;5076655;28;20415;-70
2022/11/25 12:25:00;;;;;;;11.93;7.07;;;7.10;91.90;;;;;;5074241;28;20423;-76
2022/11/25 12:28:03;;;;;;;8.00;6.87;;;7.10;93.80;;;;;;5074967;28;20817;-71
2022/11/25 12:30:37;;;;;;;8.40;7.00;;;7.10;99.90;;;;;;5070387;28;20427;-70
2022/11/25 12:33:15;;;;;;;8.93;6.70;;;7.10;96.20;;;;;;5076323;28;20412;-70
2022/11/25 12:36:07;;;;;;;11.60;7.20;;;7.10;89.70;;;;;;5075561;28;20396;-76
2022/11/25 12:38:38;;;;;;;11.67;8.10;;;7.20;99.90;;;;;;5076311;28;20491;-76
2022/11/25 12:41:15;;;;;;;8.07;6.50;;;7.20;95.80;;;;;;5074734;28;20465;-76
2022/11/25 12:43:46;;;;;;;16.70;7.93;;;7.20;94.30;;;;;;5074436;28;20420;-76
2022/11/25 12:46:27;;;;;;;10.33;6.67;;;7.20;97.30;;;;;;5074693;28;20786;-70
2022/11/25 12:48:55;;;;;;;11.67;7.47;;;7.30;96.10;;;;;;5075966;28;20456;-70
2022/11/25 12:51:56;;;;;;;7.67;6.97;;;7.30;99.50;;;;;;5075976;28;20397;-70
2022/11/25 12:54:56;;;;;;;11.20;6.83;;;7.40;99.90;;;;;;5055635;28;20429;-76
2022/11/25 12:57:33;;;;;;;11.70;9.30;;;7.50;99.90;;;;;;5075604;28;20777;-75
2022/11/25 13:00:19;;;;;;;15.13;8.83;;;7.50;99.90;;;;;;5074196;28;20466;-76
2022/11/25 13:02:54;;;;;;;10.77;6.47;;;7.60;99.90;;;;;;5075883;28;20749;-76
2022/11/25 13:06:06;;;;;;;8.20;7.27;;;7.60;99.90;;;;;;5073608;28;20524;-76
2022/11/25 13:08:47;;;;;;;8.33;7.53;;;7.60;99.90;;;;;;5074305;28;20462;-75
2022/11/25 13:11:49;;;;;;;10.40;8.73;;;7.60;99.90;;;;;;5074272;28;20455;-70